KSCD

Details ICAO KSCD
Name MERKEL FLD SYLACAUGA MUNI
Region United States
Timezone America/Chicago (UTC-6.0)
Plans Departing 0
Arriving 0
Stats Elevation 569 ft / 173 m (AMSL)
Location 33.171835° -86.305538°
Runways 1
Magnetic Variation 3.735° W
Sunrise 2017-12-14 12:42:06 UTC / 2017-12-14 06:42:06 Local
Sunset 2017-12-14 22:40:43 UTC / 2017-12-14 16:40:43 Local
Advertisement - Login to hide

Runways

ID Width Length Bearing (true) Bearing (mag) Surface Threshold Offset Overrun Length
09 100 ft / 30 m 5,379 ft / 1,640 m 90.55° 94.29° Asphalt 0 ft / 0 m 0 ft / 0 m
27 100 ft / 30 m 5,379 ft / 1,640 m 270.56° 274.30° Asphalt 0 ft / 0 m 0 ft / 0 m

Map

Weather


0- 5 10 15 20 25 30 35+ Temperature / ° C

Clouds and Precipitation
Forecast for 2017-12-14 18:00 UTC. Updated 31 minutes ago

Ground ~20,000 ft ~40,000 ft Winds

METAR

KSCD 141335Z AUTO 00000KT 10SM CLR 00/00 A2996 RMK AO2 T10051005

TAF

Not found

Frequencies

Recorded 119.12 MHz AWOS 3
Approach 123.80 MHz BIRMINGHAM APP/DEP
Unicom 122.80 MHz CTAF/UNICOM
Warning: Do not use this data for real-world aviation or navigation. No guarantee of current accuracy is given.